Time;durP1;ratioP1;P1;durP2;ratioP2;P2;SDS_P1;SDS_P2;PMS_P1;PMS_P2;Temp;Humidity;BMP_temperature;BMP_pressure;BME280_temperature;BME280_humidity;BME280_pressure;Samples;Min_cycle;Max_cycle;Signal;HPM_P1;HPM_P2
2022/07/22 00:01:50;;;;;;;11.4;9.9;;;;;;;19.25;85.0625;942.5287;;;;
2022/07/22 00:04:16;;;;;;;12.4;9.9;;;;;;;19.3;84.95703;942.4744;;;;
2022/07/22 00:06:40;;;;;;;11;9.9;;;;;;;;;;;;;
2022/07/22 00:09:05;;;;;;;13.2;10.2;;;;;;;;;;;;;
2022/07/22 00:11:30;;;;;;;11.4;9.9;;;;;;;;;;;;;
2022/07/22 00:13:56;;;;;;;11.1;9.9;;;;;;;;;;;;;
2022/07/22 00:16:21;;;;;;;10.7;9.6;;;;;;;;;;;;;
2022/07/22 00:18:46;;;;;;;10.8;9.1;;;;;;;;;;;;;
2022/07/22 00:21:11;;;;;;;11.6;9.8;;;;;;;;;;;;;
2022/07/22 00:23:37;;;;;;;10.9;9.8;;;;;;;;;;;;;
2022/07/22 00:26:02;;;;;;;10.8;9.6;;;;;;;;;;;;;
2022/07/22 00:28:28;;;;;;;12;10.5;;;;;;;;;;;;;
2022/07/22 00:30:53;;;;;;;13.3;10.6;;;;;;;;;;;;;
2022/07/22 00:33:21;;;;;;;13;10.7;;;;;;;;;;;;;
2022/07/22 00:35:46;;;;;;;10.8;9.7;;;;;;;;;;;;;
2022/07/22 00:38:11;;;;;;;11.7;10.5;;;;;;;;;;;;;
2022/07/22 00:40:36;;;;;;;13.4;10.1;;;;;;;;;;;;;
2022/07/22 00:43:02;;;;;;;12;10.2;;;;;;;;;;;;;
2022/07/22 00:45:27;;;;;;;11.5;9.3;;;;;;;;;;;;;
2022/07/22 00:47:53;;;;;;;11.5;9.6;;;;;;;;;;;;;
2022/07/22 00:50:19;;;;;;;10.7;9.6;;;;;;;;;;;;;
2022/07/22 00:52:46;;;;;;;11.7;10.1;;;;;;;;;;;;;
2022/07/22 00:55:11;;;;;;;14.4;10.4;;;;;;;;;;;;;
2022/07/22 00:57:36;;;;;;;13;10.6;;;;;;;;;;;;;
2022/07/22 01:00:01;;;;;;;13.4;10.4;;;;;;;;;;;;;
2022/07/22 01:02:26;;;;;;;11.4;10.1;;;;;;;;;;;;;
2022/07/22 01:04:51;;;;;;;11.8;10.1;;;;;;;;;;;;;
2022/07/22 01:07:17;;;;;;;11.1;9.9;;;;;;;;;;;;;
2022/07/22 01:09:42;;;;;;;11.3;10.1;;;;;;;;;;;;;
2022/07/22 01:12:07;;;;;;;11.6;10.3;;;;;;;;;;;;;
2022/07/22 01:14:33;;;;;;;14.3;10.6;;;;;;;;;;;;;
2022/07/22 01:16:58;;;;;;;11.7;10.1;;;;;;;;;;;;;
2022/07/22 01:19:23;;;;;;;11.5;10.4;;;;;;;;;;;;;
2022/07/22 01:21:48;;;;;;;12.1;10.8;;;;;;;;;;;;;
2022/07/22 01:24:14;;;;;;;12.9;11;;;;;;;;;;;;;
2022/07/22 01:26:39;;;;;;;12.6;10.8;;;;;;;;;;;;;
2022/07/22 01:29:04;;;;;;;12.5;10.5;;;;;;;;;;;;;
2022/07/22 01:31:29;;;;;;;12.4;10.5;;;;;;;;;;;;;
2022/07/22 01:33:55;;;;;;;13.2;10.3;;;;;;;;;;;;;
2022/07/22 01:36:19;;;;;;;13.9;10.6;;;;;;;;;;;;;
2022/07/22 01:38:45;;;;;;;12.3;11;;;;;;;;;;;;;
2022/07/22 01:41:10;;;;;;;11.7;10.2;;;;;;;;;;;;;
2022/07/22 01:43:35;;;;;;;13.7;11.8;;;;;;;;;;;;;
2022/07/22 01:46:01;;;;;;;12.1;10.7;;;;;;;;;;;;;
2022/07/22 01:48:26;;;;;;;13.5;11.3;;;;;;;;;;;;;
2022/07/22 01:50:52;;;;;;;13.9;10.9;;;;;;;;;;;;;
2022/07/22 01:53:17;;;;;;;12;10.6;;;;;;;;;;;;;
2022/07/22 01:55:44;;;;;;;12;10.8;;;;;;;;;;;;;
2022/07/22 01:58:09;;;;;;;11.8;10.4;;;;;;;;;;;;;
2022/07/22 02:00:34;;;;;;;12.2;10.6;;;;;;;;;;;;;
2022/07/22 02:02:59;;;;;;;11.9;10.6;;;;;;;;;;;;;
2022/07/22 02:05:26;;;;;;;11.6;10.4;;;;;;;;;;;;;
2022/07/22 02:07:52;;;;;;;11.7;10.5;;;;;;;;;;;;;
2022/07/22 02:10:18;;;;;;;13;11.3;;;;;;;;;;;;;
2022/07/22 02:12:42;;;;;;;13.2;11.5;;;;;;;;;;;;;
2022/07/22 02:15:08;;;;;;;13.3;11.1;;;;;;;;;;;;;
2022/07/22 02:17:33;;;;;;;13.3;11.1;;;;;;;;;;;;;
2022/07/22 02:19:59;;;;;;;12.1;10.8;;;;;;;;;;;;;
2022/07/22 02:22:24;;;;;;;11.8;10.3;;;;;;;;;;;;;
2022/07/22 02:24:50;;;;;;;12.6;10.8;;;;;;;;;;;;;
2022/07/22 02:27:15;;;;;;;14.4;11.5;;;;;;;;;;;;;
2022/07/22 02:29:43;;;;;;;12.4;11.1;;;;;;;;;;;;;
2022/07/22 02:32:08;;;;;;;12.9;11.2;;;;;;;;;;;;;
2022/07/22 02:34:34;;;;;;;13;10.7;;;;;;;;;;;;;
2022/07/22 02:36:59;;;;;;;12.6;10.5;;;;;;;;;;;;;
2022/07/22 02:39:26;;;;;;;12.6;10.7;;;;;;;;;;;;;
2022/07/22 02:41:51;;;;;;;12.7;10.5;;;;;;;;;;;;;
2022/07/22 02:44:17;;;;;;;12.4;10.3;;;;;;;;;;;;;
2022/07/22 02:46:42;;;;;;;14.9;10.9;;;;;;;;;;;;;
2022/07/22 02:49:09;;;;;;;13.9;11.2;;;;;;;;;;;;;
2022/07/22 02:51:34;;;;;;;13.4;10.6;;;;;;;;;;;;;
2022/07/22 02:54:00;;;;;;;12.9;11.2;;;;;;;;;;;;;
2022/07/22 02:56:25;;;;;;;12.6;11.1;;;;;;;;;;;;;
2022/07/22 02:58:54;;;;;;;13.3;10.7;;;;;;;;;;;;;
2022/07/22 03:01:18;;;;;;;12.4;10.7;;;;;;;;;;;;;
2022/07/22 03:03:45;;;;;;;13.6;10.8;;;;;;;;;;;;;
2022/07/22 03:06:10;;;;;;;13;10.8;;;;;;;;;;;;;
2022/07/22 03:08:37;;;;;;;16.5;11.6;;;;;;;;;;;;;
2022/07/22 03:11:02;;;;;;;13.8;11.1;;;;;;;;;;;;;
2022/07/22 03:13:27;;;;;;;12.3;11;;;;;;;;;;;;;
2022/07/22 03:15:52;;;;;;;13.6;11.7;;;;;;;;;;;;;
2022/07/22 03:18:20;;;;;;;12.3;11;;;;;;;;;;;;;
2022/07/22 03:20:45;;;;;;;13.2;11.3;;;;;;;;;;;;;
2022/07/22 03:23:11;;;;;;;13.7;12;;;;;;;;;;;;;
2022/07/22 03:25:36;;;;;;;16.8;13.5;;;;;;;;;;;;;
2022/07/22 03:28:02;;;;;;;17.4;12.8;;;;;;;;;;;;;
2022/07/22 03:30:27;;;;;;;14.9;12.9;;;;;;;;;;;;;
2022/07/22 03:32:56;;;;;;;16.4;13.2;;;;;;;;;;;;;
2022/07/22 03:35:22;;;;;;;13.7;12.2;;;;;;;;;;;;;
2022/07/22 03:37:48;;;;;;;15.2;12.5;;;;;;;;;;;;;
2022/07/22 03:40:16;;;;;;;13.4;11.5;;;;;;;;;;;;;
2022/07/22 03:42:41;;;;;;;17.2;11.4;;;;;;;;;;;;;
2022/07/22 03:45:12;;;;;;;13.4;11.3;;;;;;;;;;;;;
2022/07/22 03:47:40;;;;;;;12.8;11.1;;;;;;;;;;;;;
2022/07/22 03:50:04;;;;;;;14.4;12.1;;;;;;;;;;;;;
2022/07/22 03:52:31;;;;;;;16.7;13.7;;;;;;;;;;;;;
2022/07/22 03:54:56;;;;;;;26.8;20.9;;;;;;;;;;;;;
2022/07/22 03:57:21;;;;;;;23.5;18.7;;;;;;;;;;;;;
2022/07/22 03:59:46;;;;;;;19.2;15.8;;;;;;;;;;;;;
2022/07/22 04:02:36;;;;;;;19.9;14.8;;;;;;;17.37;90.68555;941.8035;;;;
2022/07/22 04:05:11;;;;;;;17.6;13.9;;;;;;;17.48;90.25684;941.7557;;;;
2022/07/22 04:07:44;;;;;;;14.8;12.5;;;;;;;17.5;90.02832;941.7636;;;;
2022/07/22 04:10:13;;;;;;;14.5;12.2;;;;;;;17.52;90.00879;941.7045;;;;
2022/07/22 04:12:45;;;;;;;14.7;11.6;;;;;;;17.45;90.28418;941.7795;;;;
2022/07/22 04:15:19;;;;;;;13.8;11.8;;;;;;;17.48;90.18555;941.7808;;;;
2022/07/22 04:17:49;;;;;;;13.9;11.8;;;;;;;17.49;90.84863;941.8144;;;;
2022/07/22 04:20:17;;;;;;;13.7;11.6;;;;;;;17.57;90.2041;941.7772;;;;
2022/07/22 04:22:44;;;;;;;13.7;11.2;;;;;;;17.56;90.22559;941.7242;;;;
2022/07/22 04:25:13;;;;;;;13.5;11.6;;;;;;;17.65;89.4668;941.7017;;;;
2022/07/22 04:27:38;;;;;;;13.3;11.9;;;;;;;17.72;89.0166;941.6937;;;;
2022/07/22 04:30:16;;;;;;;14;11.1;;;;;;;17.82;88.79297;941.6414;;;;
2022/07/22 04:32:46;;;;;;;14.1;11.6;;;;;;;17.8;88.38086;941.7405;;;;
2022/07/22 04:35:11;;;;;;;14.7;12;;;;;;;17.73;88.84473;941.7211;;;;
2022/07/22 04:37:40;;;;;;;13.5;11.4;;;;;;;17.73;89.1709;941.7533;;;;
2022/07/22 04:40:13;;;;;;;14.9;12.1;;;;;;;17.79;89.04297;941.7195;;;;
2022/07/22 04:42:40;;;;;;;14;11.9;;;;;;;17.97;88.21973;941.7045;;;;
2022/07/22 04:45:05;;;;;;;12.8;11.4;;;;;;;18.05;87.39844;941.6724;;;;
2022/07/22 04:47:33;;;;;;;16.7;12.1;;;;;;;18.13;86.77539;941.647;;;;
2022/07/22 04:49:58;;;;;;;14.3;11.3;;;;;;;18.2;86.33691;941.588;;;;
2022/07/22 04:52:27;;;;;;;13.5;11.1;;;;;;;18.26;85.81445;941.6583;;;;
2022/07/22 04:54:58;;;;;;;12.4;11;;;;;;;18.14;86.16113;941.63;;;;
2022/07/22 04:57:27;;;;;;;16.4;11.4;;;;;;;18.07;86.39258;941.6375;;;;
2022/07/22 04:59:52;;;;;;;12;10.6;;;;;;;18.03;86.38379;941.6654;;;;
2022/07/22 05:02:19;;;;;;;15.9;11.3;;;;;;;17.94;86.89063;941.605;;;;
2022/07/22 05:04:44;;;;;;;12.6;11;;;;;;;17.95;87.04199;941.58;;;;
2022/07/22 05:07:10;;;;;;;12.1;10.2;;;;;;;18.04;86.80371;941.488;;;;
2022/07/22 05:09:35;;;;;;;13.2;10.9;;;;;;;18.14;86.40527;941.4978;;;;
2022/07/22 05:12:03;;;;;;;13.6;11.5;;;;;;;18.29;85.86426;941.5153;;;;
2022/07/22 05:14:28;;;;;;;13;10.7;;;;;;;18.33;85.30371;941.4839;;;;
2022/07/22 05:16:53;;;;;;;13.1;11.5;;;;;;;18.37;85.49805;941.4883;;;;
2022/07/22 05:19:19;;;;;;;12.9;10.9;;;;;;;18.72;85.32031;941.4609;;;;
2022/07/22 05:21:44;;;;;;;11.1;9.9;;;;;;;19.66;80.96875;941.412;;;;
2022/07/22 05:24:12;;;;;;;10.9;9.5;;;;;;;20.58;76.67383;941.4141;;;;
2022/07/22 05:26:37;;;;;;;10.2;9.2;;;;;;;21.14;74.08008;941.3895;;;;
2022/07/22 05:29:03;;;;;;;9.8;8.8;;;;;;;21.76;71.3623;941.3768;;;;
2022/07/22 05:31:28;;;;;;;11.5;9.4;;;;;;;22.13;70.17773;941.3644;;;;
2022/07/22 05:33:57;;;;;;;11.2;9.1;;;;;;;22.81;67.86621;941.4008;;;;
2022/07/22 05:36:25;;;;;;;12.2;9.1;;;;;;;22.91;67.4834;941.3767;;;;
2022/07/22 05:38:51;;;;;;;11.1;9.3;;;;;;;23.75;64.61035;941.3628;;;;
2022/07/22 05:41:19;;;;;;;12.5;8.9;;;;;;;24.3;62.48535;941.3638;;;;
2022/07/22 05:43:44;;;;;;;10;8.9;;;;;;;24.5;61.7959;941.3716;;;;
2022/07/22 05:46:11;;;;;;;10.5;9.1;;;;;;;24.82;60.60156;941.3133;;;;
2022/07/22 05:48:37;;;;;;;9.3;8.2;;;;;;;24.97;60.15039;941.2422;;;;
2022/07/22 05:51:04;;;;;;;9;8.1;;;;;;;25.17;59.90625;941.3036;;;;
2022/07/22 05:53:29;;;;;;;9.6;8.2;;;;;;;25.59;57.78711;941.1592;;;;
2022/07/22 05:55:58;;;;;;;9.6;8.4;;;;;;;25.74;57.38184;941.1625;;;;
2022/07/22 05:58:23;;;;;;;10.4;9;;;;;;;26.66;54.8584;941.1518;;;;
2022/07/22 06:00:49;;;;;;;10.9;8.1;;;;;;;27;54.05859;941.1569;;;;
2022/07/22 06:03:14;;;;;;;9.3;8.3;;;;;;;27.04;53.55371;941.1237;;;;
2022/07/22 06:05:41;;;;;;;9.3;8.4;;;;;;;27.84;50.74023;941.1883;;;;
2022/07/22 06:08:06;;;;;;;9.2;8.2;;;;;;;28.22;50.23633;941.1781;;;;
2022/07/22 06:10:34;;;;;;;9.7;7.8;;;;;;;28.52;48.85449;941.1231;;;;
2022/07/22 06:12:59;;;;;;;10.1;8.2;;;;;;;28.38;49.91992;941.1284;;;;
2022/07/22 06:15:31;;;;;;;10;8.5;;;;;;;29.12;48.11035;941.1064;;;;
2022/07/22 06:18:00;;;;;;;9.6;8.3;;;;;;;28.47;48.59863;941.1079;;;;
2022/07/22 06:20:25;;;;;;;9.7;8.2;;;;;;;29.17;46.75684;941.0936;;;;
2022/07/22 06:22:52;;;;;;;9.9;8.4;;;;;;;28.49;48.73242;941.133;;;;
2022/07/22 06:25:17;;;;;;;9.5;8;;;;;;;28.95;48.24512;941.0709;;;;
2022/07/22 06:27:45;;;;;;;10.4;8.5;;;;;;;28.92;48.10059;941.0701;;;;
2022/07/22 06:30:10;;;;;;;9.5;8.5;;;;;;;28.38;49.00586;941.0511;;;;
2022/07/22 06:32:38;;;;;;;8.8;7.9;;;;;;;29.11;49.11914;940.9777;;;;
2022/07/22 06:35:03;;;;;;;10;8.7;;;;;;;30;45.49414;940.9788;;;;
2022/07/22 06:37:30;;;;;;;9.4;8;;;;;;;31.33;43.53418;940.9449;;;;
2022/07/22 06:39:55;;;;;;;8.9;8;;;;;;;31.56;42.19141;940.9576;;;;
2022/07/22 06:42:22;;;;;;;9.6;8.6;;;;;;;30.9;43.89941;940.9103;;;;
2022/07/22 06:44:46;;;;;;;8.8;7.6;;;;;;;32.19;40.78711;940.9193;;;;
2022/07/22 06:47:12;;;;;;;9.4;8.4;;;;;;;29.01;46.97852;940.9493;;;;
2022/07/22 06:49:36;;;;;;;8.6;7.8;;;;;;;30.85;44.63574;940.9005;;;;
2022/07/22 06:52:02;;;;;;;13.5;9;;;;;;;32.14;42.08887;940.8889;;;;
2022/07/22 06:54:27;;;;;;;11.3;9.5;;;;;;;33.23;39.42676;940.9492;;;;
2022/07/22 06:56:54;;;;;;;8.6;7.7;;;;;;;33.7;40.26172;940.9327;;;;
2022/07/22 06:59:19;;;;;;;8.9;7.9;;;;;;;32.64;40.51563;940.8859;;;;
2022/07/22 07:01:46;;;;;;;9.3;7.9;;;;;;;33.36;39.07813;940.8596;;;;
2022/07/22 07:04:11;;;;;;;9.4;7.7;;;;;;;32.98;39.58594;940.8987;;;;
2022/07/22 07:06:39;;;;;;;8.2;7.4;;;;;;;34.22;37.23633;940.8156;;;;
2022/07/22 07:09:04;;;;;;;11.8;8.3;;;;;;;35.01;35.55176;940.7891;;;;
2022/07/22 07:11:31;;;;;;;8.6;7.7;;;;;;;33.79;36.56348;940.7871;;;;
2022/07/22 07:13:56;;;;;;;9.5;7.7;;;;;;;34.87;35.25098;940.7381;;;;
2022/07/22 07:16:26;;;;;;;7.6;6.9;;;;;;;35.82;34.04395;940.6716;;;;
2022/07/22 07:18:55;;;;;;;9.1;8.2;;;;;;;34.01;36.58105;940.7151;;;;
2022/07/22 07:21:20;;;;;;;8.3;7.3;;;;;;;34.02;37.08789;940.6736;;;;
2022/07/22 07:23:45;;;;;;;8.5;7.2;;;;;;;34.77;35.35254;940.7126;;;;
2022/07/22 07:26:24;;;;;;;8.4;7.5;;;;;;;35.23;35.00195;940.7068;;;;
2022/07/22 07:28:50;;;;;;;8.5;7.6;;;;;;;34.89;35.71094;940.6183;;;;
2022/07/22 07:31:15;;;;;;;8.8;7.9;;;;;;;36.07;33.86914;940.6197;;;;
2022/07/22 07:33:42;;;;;;;8.5;7.7;;;;;;;37.13;32.43164;940.6369;;;;
2022/07/22 07:36:07;;;;;;;7.9;7;;;;;;;37.15;32.65234;940.6649;;;;
2022/07/22 07:38:37;;;;;;;7.7;7;;;;;;;37.61;31.83594;940.6041;;;;
2022/07/22 07:41:05;;;;;;;8;7.2;;;;;;;37.16;31.29492;940.5609;;;;
2022/07/22 07:43:30;;;;;;;8.5;7.7;;;;;;;35.57;35.47461;940.5237;;;;
2022/07/22 07:45:57;;;;;;;8.1;7.3;;;;;;;35.8;34.01758;940.5193;;;;
2022/07/22 07:48:23;;;;;;;8.7;7.8;;;;;;;34.69;36.21387;940.4667;;;;
2022/07/22 07:50:50;;;;;;;8.3;7.5;;;;;;;34.4;36.45605;940.4902;;;;
2022/07/22 07:53:15;;;;;;;18;8.2;;;;;;;36.97;33.88672;940.4493;;;;
2022/07/22 07:55:44;;;;;;;8.1;7.4;;;;;;;37.08;33.7373;940.4725;;;;
2022/07/22 07:58:09;;;;;;;8.2;7.5;;;;;;;37.95;31.40918;940.4514;;;;
2022/07/22 08:00:36;;;;;;;9;8.1;;;;;;;37.92;32.46387;940.4637;;;;
2022/07/22 08:03:01;;;;;;;9.5;7.4;;;;;;;36.43;35.65039;940.4551;;;;
2022/07/22 08:05:26;;;;;;;8.4;7.6;;;;;;;37.21;33.71094;940.4138;;;;
2022/07/22 08:07:51;;;;;;;8.4;7.6;;;;;;;38.41;31.12402;940.4387;;;;
2022/07/22 08:10:21;;;;;;;9.6;7.7;;;;;;;36.66;34.80859;940.4573;;;;
2022/07/22 08:12:59;;;;;;;8.8;7.9;;;;;;;37.9;32.34082;940.4669;;;;
2022/07/22 08:15:32;;;;;;;8.2;7.5;;;;;;;37.49;34.41016;940.4238;;;;
2022/07/22 08:17:57;;;;;;;9.7;7;;;;;;;36.33;32.9209;940.4266;;;;
2022/07/22 08:20:23;;;;;;;8.7;6.9;;;;;;;36.46;33.71582;940.4714;;;;
2022/07/22 08:22:48;;;;;;;8.6;7.7;;;;;;;36.49;35.12305;940.4052;;;;
2022/07/22 08:25:15;;;;;;;8.4;7.6;;;;;;;36.81;33.89941;940.3664;;;;
2022/07/22 08:27:40;;;;;;;8.1;6.6;;;;;;;34.36;36.35645;940.2949;;;;
2022/07/22 08:30:08;;;;;;;7.8;7.1;;;;;;;34.78;37.65625;940.3851;;;;
2022/07/22 08:32:33;;;;;;;7.8;7.1;;;;;;;35.01;37.27637;940.3734;;;;
2022/07/22 08:34:58;;;;;;;8.6;6.8;;;;;;;35.06;36.78613;940.3613;;;;
2022/07/22 08:37:39;;;;;;;7.2;6.5;;;;;;;37;32.79883;940.3602;;;;
2022/07/22 08:40:04;;;;;;;9.3;7;;;;;;;35.69;37.36914;940.3173;;;;
2022/07/22 08:45:03;;;;;;;8.7;7.4;;;;;;;35.63;35.62402;940.2522;;;;
2022/07/22 08:47:33;;;;;;;7.7;6.9;;;;;;;37.34;34.53223;940.282;;;;
2022/07/22 08:50:47;;;;;;;7.8;7;;;;;;;38.03;33.32129;940.2406;;;;
2022/07/22 08:52:25;;;;;;;8.6;7.7;;;;;;;38.76;32.29199;940.2206;;;;
2022/07/22 08:54:50;;;;;;;8.5;7.7;;;;;;;39.55;30.84863;940.1365;;;;
2022/07/22 08:57:15;;;;;;;9;7.5;;;;;;;39.53;31.0791;940.1141;;;;
2022/07/22 08:59:42;;;;;;;7.6;6.6;;;;;;;39.97;28.54785;940.1328;;;;
2022/07/22 09:02:08;;;;;;;7.8;7.1;;;;;;;39.77;28.90039;940.0531;;;;
2022/07/22 09:04:34;;;;;;;7.4;6.7;;;;;;;39.72;28.66699;940.0618;;;;
2022/07/22 09:06:59;;;;;;;6.9;6.2;;;;;;;40.19;28.53711;940.0463;;;;
2022/07/22 09:09:24;;;;;;;7.3;6.6;;;;;;;40.84;26.96484;940.0671;;;;
2022/07/22 09:11:49;;;;;;;7.7;6.9;;;;;;;39.49;29.98047;940.0179;;;;
2022/07/22 09:14:15;;;;;;;6.9;6.2;;;;;;;37.83;32.26367;939.9389;;;;
2022/07/22 09:16:41;;;;;;;8.5;6.4;;;;;;;38.24;30.99219;939.9428;;;;
2022/07/22 09:19:08;;;;;;;7.1;6.4;;;;;;;37.29;32.96582;939.9612;;;;
2022/07/22 09:21:34;;;;;;;6.2;5.6;;;;;;;36.9;33.8457;939.9333;;;;
2022/07/22 09:23:59;;;;;;;6.5;5.9;;;;;;;37.85;30.80859;939.9196;;;;
2022/07/22 09:26:26;;;;;;;7.1;6.4;;;;;;;36.49;34.60156;939.885;;;;
2022/07/22 09:28:51;;;;;;;6.9;6.3;;;;;;;37.65;31.84961;939.8989;;;;
2022/07/22 09:31:16;;;;;;;8.3;6.7;;;;;;;37.26;33.39844;939.889;;;;
2022/07/22 09:33:44;;;;;;;7.8;6.4;;;;;;;38.05;30.67578;939.8364;;;;
2022/07/22 09:36:07;;;;;;;7.5;6.5;;;;;;;37.98;31.30176;939.7903;;;;
2022/07/22 09:38:34;;;;;;;8.1;6.8;;;;;;;38.24;31.21094;939.7464;;;;
2022/07/22 09:40:59;;;;;;;9.2;6.9;;;;;;;36.9;34.47559;939.7783;;;;
2022/07/22 09:43:34;;;;;;;8.3;7.2;;;;;;;35.99;35.26465;939.7391;;;;
2022/07/22 09:45:53;;;;;;;7.5;6.7;;;;;;;36.8;34.81836;939.7103;;;;
2022/07/22 09:48:18;;;;;;;8.9;7.2;;;;;;;37.11;34.70996;939.6459;;;;
2022/07/22 09:50:43;;;;;;;7.9;7.1;;;;;;;36;36.64453;939.6365;;;;
2022/07/22 09:53:10;;;;;;;8.6;6.8;;;;;;;35.09;37.47656;939.6158;;;;
2022/07/22 09:55:38;;;;;;;8.5;7.4;;;;;;;35.41;36.3916;939.5597;;;;
2022/07/22 09:58:00;;;;;;;7.5;6.7;;;;;;;36.3;36.10059;939.5392;;;;
2022/07/22 10:00:25;;;;;;;8;6.9;;;;;;;34.89;39.2207;939.5313;;;;
2022/07/22 10:02:50;;;;;;;8.4;7.5;;;;;;;34.7;39.3125;939.4922;;;;
2022/07/22 10:05:15;;;;;;;8.2;7.3;;;;;;;35.77;37.72559;939.5291;;;;
2022/07/22 10:07:43;;;;;;;9;7.5;;;;;;;34.93;38.00586;939.5276;;;;
2022/07/22 10:10:09;;;;;;;8;7;;;;;;;35.48;36.63867;939.5413;;;;
2022/07/22 10:12:35;;;;;;;7.8;6.3;;;;;;;36.02;35.9082;939.5181;;;;
2022/07/22 10:15:00;;;;;;;8.6;7.4;;;;;;;35.95;35.49219;939.5008;;;;
2022/07/22 10:17:30;;;;;;;8;7.3;;;;;;;35.54;37.15039;939.4105;;;;
2022/07/22 10:19:57;;;;;;;8.8;7.9;;;;;;;34.84;38.64941;939.4411;;;;
2022/07/22 10:22:22;;;;;;;8.6;7.8;;;;;;;35.13;38.28906;939.416;;;;
2022/07/22 10:24:48;;;;;;;8.6;7.7;;;;;;;35.22;37.7168;939.4307;;;;
2022/07/22 10:27:13;;;;;;;9.1;7.3;;;;;;;35.27;38.49316;939.3542;;;;
2022/07/22 10:29:39;;;;;;;8.5;7.4;;;;;;;34.83;38.58887;939.361;;;;
2022/07/22 10:32:06;;;;;;;7.5;6.8;;;;;;;35.26;37.09277;939.3083;;;;
2022/07/22 10:34:31;;;;;;;7.5;6.8;;;;;;;35.61;36.67285;939.2684;;;;
2022/07/22 10:36:57;;;;;;;8.5;7.3;;;;;;;35.78;36.85645;939.2795;;;;
2022/07/22 10:39:25;;;;;;;8;7.2;;;;;;;35.86;35.99316;939.2188;;;;
2022/07/22 10:41:50;;;;;;;9.9;7.4;;;;;;;35.2;37.83496;939.2308;;;;
2022/07/22 10:44:17;;;;;;;8;7.2;;;;;;;35.61;36.97559;939.2226;;;;
2022/07/22 10:46:42;;;;;;;8.6;7.3;;;;;;;35.78;36.74707;939.212;;;;
2022/07/22 10:49:07;;;;;;;8.3;7.3;;;;;;;34.75;40.22266;939.1749;;;;
2022/07/22 10:51:33;;;;;;;8.9;8;;;;;;;34.23;40.68164;939.1674;;;;
2022/07/22 10:54:01;;;;;;;9.1;7.6;;;;;;;33.26;42.41016;939.1636;;;;
2022/07/22 10:56:26;;;;;;;9.2;7.7;;;;;;;33.31;42.29395;939.2073;;;;
2022/07/22 10:58:51;;;;;;;8.8;7.7;;;;;;;33.49;42.4668;939.1951;;;;
2022/07/22 11:01:15;;;;;;;8.1;7.2;;;;;;;33.36;42.58691;939.1029;;;;
2022/07/22 11:03:41;;;;;;;9;7.3;;;;;;;33.27;44.08203;939.0737;;;;
2022/07/22 11:06:06;;;;;;;8.7;7.5;;;;;;;33.57;42.05371;939.1425;;;;
2022/07/22 11:08:33;;;;;;;8;7.2;;;;;;;33.84;40.52637;939.1035;;;;
2022/07/22 11:10:59;;;;;;;9.2;7.2;;;;;;;33.61;42.44336;939.0963;;;;
2022/07/22 11:13:24;;;;;;;8.5;6.9;;;;;;;34.09;40.65625;939.0676;;;;
2022/07/22 11:15:51;;;;;;;9;7.3;;;;;;;34.13;39.5293;939.0435;;;;
2022/07/22 11:18:19;;;;;;;8.9;8;;;;;;;33.29;43.39844;939.0256;;;;
2022/07/22 11:20:44;;;;;;;9.2;7.6;;;;;;;32.15;44.47656;939.0599;;;;
2022/07/22 11:23:09;;;;;;;9.6;7.5;;;;;;;32.23;43.06934;938.9894;;;;
2022/07/22 11:25:37;;;;;;;8.8;7.6;;;;;;;32.13;44.72656;939.046;;;;
2022/07/22 11:28:02;;;;;;;8.3;7.5;;;;;;;31.53;46.06738;939.0174;;;;
2022/07/22 11:30:27;;;;;;;8.3;7.4;;;;;;;31.7;45.13867;938.9481;;;;
2022/07/22 11:32:53;;;;;;;10.2;7.2;;;;;;;32;44.58203;938.8869;;;;
2022/07/22 11:35:21;;;;;;;8.4;7.4;;;;;;;31.82;44.06055;938.897;;;;
2022/07/22 11:37:46;;;;;;;9.6;8;;;;;;;31.77;45.33789;938.8937;;;;
2022/07/22 11:40:17;;;;;;;8.1;7.3;;;;;;;31.7;44.58789;938.7823;;;;
2022/07/22 11:42:47;;;;;;;7.9;7.2;;;;;;;31.39;46.68848;938.7371;;;;
2022/07/22 11:45:12;;;;;;;10.1;8;;;;;;;31.2;47.14648;938.7285;;;;
2022/07/22 11:47:42;;;;;;;7.8;7;;;;;;;31.44;46.17871;938.6805;;;;
2022/07/22 11:50:07;;;;;;;8.7;7.7;;;;;;;31.41;48.64063;938.7054;;;;
2022/07/22 11:52:32;;;;;;;8.4;7.6;;;;;;;31.45;46.11914;938.6587;;;;
2022/07/22 11:54:57;;;;;;;9.5;7.8;;;;;;;31.5;46.92676;938.6995;;;;
2022/07/22 11:57:26;;;;;;;9.4;7.6;;;;;;;31.32;46.42969;938.6616;;;;
2022/07/22 11:59:55;;;;;;;9.1;7.6;;;;;;;31.51;47.03516;938.6247;;;;
2022/07/22 12:02:20;;;;;;;8.4;7.6;;;;;;;31.71;45.24707;938.5988;;;;
2022/07/22 12:04:48;;;;;;;9.1;7.8;;;;;;;31.56;47.5918;938.5959;;;;
2022/07/22 12:07:13;;;;;;;8.4;7.5;;;;;;;31.35;48.17969;938.5297;;;;
2022/07/22 12:09:44;;;;;;;10;7.2;;;;;;;31.66;46.33203;938.5106;;;;
2022/07/22 12:12:11;;;;;;;8.5;7.5;;;;;;;31.83;45.94238;938.4867;;;;
2022/07/22 12:14:36;;;;;;;9.4;7.5;;;;;;;31.47;47.92969;938.4258;;;;
2022/07/22 12:17:23;;;;;;;8.5;7.3;;;;;;;31.27;48.12305;938.4166;;;;
2022/07/22 12:19:48;;;;;;;10.4;8;;;;;;;31.22;49.44629;938.361;;;;
2022/07/22 12:22:20;;;;;;;8.4;7.2;;;;;;;31.39;47.1416;938.345;;;;
2022/07/22 12:24:49;;;;;;;11.5;8.3;;;;;;;31.76;46.54688;938.3292;;;;
2022/07/22 12:27:17;;;;;;;9;7.6;;;;;;;31.92;46.40723;938.2312;;;;
2022/07/22 12:29:43;;;;;;;9.7;7.7;;;;;;;31.79;47.3877;938.2443;;;;
2022/07/22 12:32:10;;;;;;;8.5;7.4;;;;;;;31.79;46.37012;938.2219;;;;
2022/07/22 12:34:35;;;;;;;10.6;7.6;;;;;;;31.95;45.63184;938.1953;;;;
2022/07/22 12:37:06;;;;;;;8.8;7.9;;;;;;;32.09;45.87305;938.1705;;;;
2022/07/22 12:39:36;;;;;;;8.3;7.5;;;;;;;32.15;45.61426;938.1614;;;;
2022/07/22 12:42:01;;;;;;;8.4;7.6;;;;;;;31.76;48.03125;938.1987;;;;
2022/07/22 12:44:26;;;;;;;8.7;7.9;;;;;;;31.98;45.93359;938.0991;;;;
2022/07/22 12:46:52;;;;;;;9.5;7.7;;;;;;;32.14;46.68164;938.0942;;;;
2022/07/22 12:49:16;;;;;;;8.7;7.3;;;;;;;32.23;46.42676;938.1549;;;;
2022/07/22 12:51:43;;;;;;;8.4;7.6;;;;;;;32.2;45.88379;938.0594;;;;
2022/07/22 12:54:08;;;;;;;8.8;7.8;;;;;;;32.18;46.12207;938.0773;;;;
2022/07/22 12:56:39;;;;;;;9.4;7.7;;;;;;;32.25;45.19336;938.0481;;;;
2022/07/22 12:59:02;;;;;;;8.7;7.8;;;;;;;32.27;45.56738;938.0222;;;;
2022/07/22 13:01:28;;;;;;;7.8;7;;;;;;;32.38;44.61816;938.0092;;;;
2022/07/22 13:03:53;;;;;;;9.1;7.8;;;;;;;32.12;48.1543;938.0469;;;;
2022/07/22 13:06:20;;;;;;;10.1;7.4;;;;;;;32.23;45.58789;937.9888;;;;
2022/07/22 13:08:45;;;;;;;9.2;7.4;;;;;;;31.97;47.05957;938.0623;;;;
2022/07/22 13:11:11;;;;;;;8.1;7.2;;;;;;;32.25;45.22949;938.0064;;;;
2022/07/22 13:13:36;;;;;;;8.5;7.3;;;;;;;31.94;46.1084;938.002;;;;
2022/07/22 13:16:06;;;;;;;8.9;7.5;;;;;;;31.64;48.00781;937.9771;;;;
2022/07/22 13:18:35;;;;;;;8.1;7.3;;;;;;;31.65;48.1748;937.9597;;;;
2022/07/22 13:21:00;;;;;;;7.8;7;;;;;;;31.87;46.74902;937.9839;;;;
2022/07/22 13:23:27;;;;;;;9.9;7.8;;;;;;;31.69;46.76758;937.8992;;;;
2022/07/22 13:25:52;;;;;;;8.8;7.9;;;;;;;31.77;47.97266;937.8511;;;;
2022/07/22 13:28:19;;;;;;;9.1;7.4;;;;;;;31.71;46.74414;937.83;;;;
2022/07/22 13:30:44;;;;;;;8;7.2;;;;;;;31.36;47.21094;937.7635;;;;
2022/07/22 13:33:10;;;;;;;9.5;7.4;;;;;;;31.37;46.84082;937.7693;;;;
2022/07/22 13:35:36;;;;;;;10.6;8;;;;;;;31.37;46.57813;937.7739;;;;
2022/07/22 13:38:03;;;;;;;8;7.2;;;;;;;31.5;46.10059;937.7524;;;;
2022/07/22 13:40:27;;;;;;;8.6;7.3;;;;;;;31.31;47.42188;937.7784;;;;
2022/07/22 13:42:53;;;;;;;16.3;8.1;;;;;;;30.66;48.69238;937.7731;;;;
2022/07/22 13:45:18;;;;;;;8.6;7.7;;;;;;;30.87;47.08887;937.7114;;;;
2022/07/22 13:47:47;;;;;;;8.6;7.7;;;;;;;31.04;49.19922;937.6806;;;;
2022/07/22 13:50:12;;;;;;;8.3;7.1;;;;;;;31.15;48.81641;937.716;;;;
2022/07/22 13:52:40;;;;;;;7.7;7;;;;;;;31.33;46.72949;937.6577;;;;
2022/07/22 13:55:05;;;;;;;7.9;7.2;;;;;;;31.5;47.14258;937.6882;;;;
2022/07/22 13:57:31;;;;;;;9;7.3;;;;;;;31.68;45.84277;937.6824;;;;
2022/07/22 13:59:57;;;;;;;7.9;7.1;;;;;;;31.89;45.10938;937.6342;;;;
2022/07/22 14:02:21;;;;;;;7.7;6.9;;;;;;;32.06;45.11523;937.5951;;;;
2022/07/22 14:04:51;;;;;;;10.1;7.3;;;;;;;32.02;44.88281;937.552;;;;
2022/07/22 14:07:20;;;;;;;8.4;7.3;;;;;;;32.05;45.67871;937.5734;;;;
2022/07/22 14:09:45;;;;;;;8;7.2;;;;;;;32.11;44.16016;937.4894;;;;
2022/07/22 14:12:12;;;;;;;8.3;6.8;;;;;;;32.09;43.88281;937.5196;;;;
2022/07/22 14:14:37;;;;;;;7.7;6.9;;;;;;;32.18;44.63477;937.5723;;;;
2022/07/22 14:17:02;;;;;;;8;7.2;;;;;;;32.25;43.29883;937.5685;;;;
2022/07/22 14:19:28;;;;;;;7.8;7;;;;;;;32.04;44.76465;937.5466;;;;
2022/07/22 14:21:54;;;;;;;7.9;7.2;;;;;;;32.07;43.15039;937.5366;;;;
2022/07/22 14:24:22;;;;;;;7.6;6.9;;;;;;;32.08;42.875;937.5441;;;;
2022/07/22 14:26:46;;;;;;;7.7;6.9;;;;;;;32.04;43.67383;937.4863;;;;
2022/07/22 14:29:11;;;;;;;7.8;7;;;;;;;32;44.42578;937.452;;;;
2022/07/22 14:31:36;;;;;;;7.6;6.8;;;;;;;32.14;43.93652;937.4927;;;;
2022/07/22 14:34:01;;;;;;;7.2;6.5;;;;;;;32.12;43.03516;937.486;;;;
2022/07/22 14:36:26;;;;;;;9.5;7.2;;;;;;;32.16;43.3623;937.5076;;;;
2022/07/22 14:38:54;;;;;;;7.8;7;;;;;;;32.21;42.78027;937.4678;;;;
2022/07/22 14:41:18;;;;;;;7.5;6.7;;;;;;;32.17;43.23145;937.5193;;;;
2022/07/22 14:43:45;;;;;;;8.7;7.1;;;;;;;32.1;42.99707;937.5242;;;;
2022/07/22 14:46:10;;;;;;;7.8;6.5;;;;;;;32.01;42.95215;937.5034;;;;
2022/07/22 14:48:39;;;;;;;7.6;6.9;;;;;;;31.96;43.40332;937.5283;;;;
2022/07/22 14:51:04;;;;;;;12;7.2;;;;;;;31.77;45.3623;937.5345;;;;
2022/07/22 14:53:32;;;;;;;8;7.2;;;;;;;31.84;44.69727;937.5036;;;;
2022/07/22 14:55:57;;;;;;;8.7;7.3;;;;;;;31.97;44.29102;937.5186;;;;
2022/07/22 14:58:25;;;;;;;8.9;7.4;;;;;;;31.79;44.42871;937.4971;;;;
2022/07/22 15:00:50;;;;;;;8.1;7.3;;;;;;;31.8;43.43555;937.5006;;;;
2022/07/22 15:03:16;;;;;;;8;6.7;;;;;;;31.93;44.58594;937.5032;;;;
2022/07/22 15:05:42;;;;;;;7.6;6.8;;;;;;;32.04;43.81836;937.4885;;;;
2022/07/22 15:08:07;;;;;;;9.8;7.4;;;;;;;32.17;42.89551;937.4392;;;;
2022/07/22 15:10:32;;;;;;;7.2;6.5;;;;;;;32.28;43.03906;937.4841;;;;
2022/07/22 15:12:59;;;;;;;9.3;6.9;;;;;;;32.4;43.03711;937.4662;;;;
2022/07/22 15:15:25;;;;;;;10.5;7.2;;;;;;;32.34;44.38672;937.5137;;;;
2022/07/22 15:17:50;;;;;;;7.3;6.6;;;;;;;32.29;42.61914;937.4942;;;;
2022/07/22 15:20:19;;;;;;;9.5;7.2;;;;;;;32.21;43.49902;937.5598;;;;
2022/07/22 15:22:44;;;;;;;8.1;6.9;;;;;;;32.18;43.91699;937.5176;;;;
2022/07/22 15:25:16;;;;;;;7.6;6.8;;;;;;;32.17;43.24414;937.486;;;;
2022/07/22 15:27:45;;;;;;;9.5;7.1;;;;;;;31.99;42.77051;937.4271;;;;